Time;durP1;ratioP1;P1;durP2;ratioP2;P2;SDS_P1;SDS_P2;PMS_P1;PMS_P2;Temp;Humidity;BMP_temperature;BMP_pressure;BME280_temperature;BME280_humidity;BME280_pressure;Samples;Min_cycle;Max_cycle;Signal;HPM_P1;HPM_P2
2021/11/01 00:02:00;;;;;;;9.77;3.65;;;10.10;99.90;;;;;;5060274;28;20411;-77
2021/11/01 00:04:32;;;;;;;6.13;2.42;;;10.10;99.90;;;;;;5066922;28;20059;-77
2021/11/01 00:07:00;;;;;;;15.30;3.08;;;10.10;99.90;;;;;;5078852;28;20048;-78
2021/11/01 00:09:29;;;;;;;14.30;3.03;;;10.10;99.90;;;;;;5091698;28;20047;-75
2021/11/01 00:11:58;;;;;;;15.70;2.50;;;10.10;99.90;;;;;;5070548;28;20035;-76
2021/11/01 00:14:27;;;;;;;13.45;4.63;;;10.10;99.90;;;;;;5063804;28;20054;-78
2021/11/01 00:16:57;;;;;;;11.32;3.35;;;10.10;99.90;;;;;;5078117;28;20059;-76
2021/11/01 00:19:26;;;;;;;8.98;2.88;;;10.10;99.90;;;;;;5075094;28;20052;-76
2021/11/01 00:21:54;;;;;;;20.35;4.20;;;10.00;99.90;;;;;;5091718;28;20051;-77
2021/11/01 00:24:23;;;;;;;11.07;3.55;;;10.00;99.90;;;;;;5083197;28;20040;-77
2021/11/01 00:26:53;;;;;;;10.57;3.20;;;10.00;99.90;;;;;;5093962;28;20040;-77
2021/11/01 00:29:21;;;;;;;9.98;2.90;;;10.00;99.90;;;;;;5076832;28;20044;-76
2021/11/01 00:31:53;;;;;;;13.20;3.75;;;10.00;99.90;;;;;;5092835;28;20052;-76
2021/11/01 00:34:21;;;;;;;12.50;2.95;;;10.00;99.90;;;;;;5076034;28;20059;-77
2021/11/01 00:36:49;;;;;;;13.52;3.47;;;10.00;99.90;;;;;;5099323;28;20036;-79
2021/11/01 00:39:17;;;;;;;14.35;3.30;;;9.90;99.90;;;;;;5069311;28;20046;-79
2021/11/01 00:41:46;;;;;;;12.15;3.05;;;9.90;99.90;;;;;;5079507;28;20074;-76
2021/11/01 00:44:14;;;;;;;10.05;3.88;;;9.90;99.90;;;;;;5078845;28;20048;-78
2021/11/01 00:46:42;;;;;;;16.08;2.80;;;9.90;99.90;;;;;;5093359;28;20044;-76
2021/11/01 00:49:11;;;;;;;12.68;2.45;;;9.80;99.90;;;;;;5095504;28;20048;-78
2021/11/01 00:51:43;;;;;;;12.18;2.88;;;9.80;99.90;;;;;;5073464;28;20052;-75
2021/11/01 00:54:12;;;;;;;12.75;2.70;;;9.80;99.90;;;;;;5076922;28;20044;-78
2021/11/01 00:56:42;;;;;;;9.93;2.65;;;9.80;99.90;;;;;;5074718;28;20066;-77
2021/11/01 00:59:12;;;;;;;11.18;2.38;;;9.80;99.90;;;;;;5052323;28;20048;-80
2021/11/01 01:01:40;;;;;;;13.23;3.88;;;9.80;99.90;;;;;;5101373;28;20055;-77
2021/11/01 01:04:09;;;;;;;12.20;4.30;;;9.80;99.90;;;;;;5103574;28;20078;-77
2021/11/01 01:06:37;;;;;;;13.35;3.20;;;9.80;99.90;;;;;;5103789;28;20044;-81
2021/11/01 01:09:05;;;;;;;13.38;2.60;;;9.80;99.90;;;;;;5083257;28;20040;-82
2021/11/01 01:11:34;;;;;;;15.43;4.35;;;9.80;99.90;;;;;;5092879;28;20047;-75
2021/11/01 01:14:08;;;;;;;11.40;2.45;;;9.80;99.90;;;;;;5069829;28;20052;-78
2021/11/01 01:16:43;;;;;;;15.25;3.72;;;9.80;99.90;;;;;;5083097;28;20052;-76
2021/11/01 01:19:17;;;;;;;42.22;8.90;;;9.90;99.90;;;;;;5082194;28;20051;-76
2021/11/01 01:24:33;;;;;;;9.07;3.05;;;9.80;99.90;;;;;;5070667;28;20401;-76
2021/11/01 01:27:02;;;;;;;13.65;3.42;;;9.90;99.90;;;;;;5066034;28;20059;-75
2021/11/01 01:29:31;;;;;;;19.73;3.72;;;9.90;99.90;;;;;;5102465;28;20138;-75
2021/11/01 01:31:59;;;;;;;13.20;2.92;;;9.90;99.90;;;;;;5089102;28;20048;-75
2021/11/01 01:34:27;;;;;;;8.52;2.78;;;9.90;99.90;;;;;;5104565;28;20052;-75
2021/11/01 01:36:56;;;;;;;17.45;3.65;;;9.90;99.90;;;;;;5104113;28;20051;-76
2021/11/01 01:39:24;;;;;;;14.63;3.35;;;9.90;99.90;;;;;;5084162;28;20059;-76
2021/11/01 01:41:52;;;;;;;13.95;2.75;;;10.00;99.90;;;;;;5079641;28;20037;-76
2021/11/01 01:44:20;;;;;;;10.43;2.60;;;10.00;99.90;;;;;;5079648;28;20059;-76
2021/11/01 01:46:49;;;;;;;11.48;2.35;;;10.00;99.90;;;;;;5085872;28;20040;-76
2021/11/01 01:49:17;;;;;;;16.25;3.40;;;9.90;99.90;;;;;;5083291;28;20053;-76
2021/11/01 01:51:47;;;;;;;10.10;2.42;;;10.00;99.90;;;;;;5078264;28;20718;-76
2021/11/01 01:54:15;;;;;;;19.73;3.85;;;10.00;99.90;;;;;;5086719;28;20051;-76
2021/11/01 01:56:44;;;;;;;18.90;4.13;;;10.00;99.90;;;;;;5102631;28;20054;-77
2021/11/01 01:59:17;;;;;;;17.60;3.78;;;9.90;99.90;;;;;;5066788;28;20041;-79
2021/11/01 02:01:49;;;;;;;;;;;9.90;99.90;;;;;;5079343;28;20054;-81
2021/11/01 02:04:27;;;;;;;7.15;2.58;;;9.90;99.90;;;;;;5083259;28;20308;-75
2021/11/01 02:07:09;;;;;;;15.27;3.67;;;9.90;99.90;;;;;;5078374;28;20048;-76
2021/11/01 02:10:05;;;;;;;16.98;4.35;;;9.90;99.90;;;;;;5105527;28;20044;-76
2021/11/01 02:12:44;;;;;;;13.77;3.35;;;9.90;99.90;;;;;;5070417;28;20145;-82
2021/11/01 02:15:15;;;;;;;17.27;3.85;;;9.90;99.90;;;;;;5084077;28;20059;-79
2021/11/01 02:17:47;;;;;;;14.55;3.88;;;10.00;99.90;;;;;;5086233;28;20052;-78
2021/11/01 02:20:21;;;;;;;15.15;3.00;;;9.90;99.90;;;;;;5068186;28;20055;-78
2021/11/01 02:23:08;;;;;;;7.93;2.70;;;10.00;99.90;;;;;;5084333;28;20056;-75
2021/11/01 02:25:41;;;;;;;8.80;2.47;;;10.00;99.90;;;;;;5070532;28;20983;-74
2021/11/01 02:28:14;;;;;;;11.20;3.70;;;10.00;99.90;;;;;;5069938;28;20048;-78
2021/11/01 02:30:44;;;;;;;7.97;1.92;;;10.10;99.90;;;;;;5066701;28;20055;-76
2021/11/01 02:33:15;;;;;;;14.40;2.80;;;10.00;99.90;;;;;;5068125;28;20036;-74
2021/11/01 02:35:44;;;;;;;13.25;2.30;;;10.00;99.90;;;;;;5104308;28;20299;-76
2021/11/01 02:38:19;;;;;;;10.50;3.35;;;10.00;99.90;;;;;;5070273;28;20055;-77
2021/11/01 02:40:48;;;;;;;10.13;3.35;;;10.00;99.90;;;;;;5104457;28;20097;-78
2021/11/01 02:43:17;;;;;;;15.93;3.25;;;10.00;99.90;;;;;;5069661;28;20055;-77
2021/11/01 02:45:46;;;;;;;12.70;4.78;;;10.00;99.90;;;;;;5084861;28;20057;-76
2021/11/01 02:48:14;;;;;;;15.45;4.55;;;10.00;99.90;;;;;;5085437;28;20641;-77
2021/11/01 02:50:42;;;;;;;13.80;4.35;;;10.00;99.90;;;;;;5107765;28;20051;-77
2021/11/01 02:53:10;;;;;;;17.23;5.32;;;10.00;99.90;;;;;;5107371;28;20046;-79
2021/11/01 02:55:39;;;;;;;9.65;2.92;;;10.00;99.90;;;;;;5088235;28;20067;-75
2021/11/01 02:58:07;;;;;;;17.35;4.75;;;9.90;99.90;;;;;;5088904;28;20036;-78
2021/11/01 03:00:35;;;;;;;11.85;2.75;;;9.90;99.90;;;;;;5073073;28;20048;-80
2021/11/01 03:03:05;;;;;;;18.05;3.13;;;9.90;99.90;;;;;;5083984;28;20046;-78
2021/11/01 03:05:36;;;;;;;16.40;4.60;;;9.90;99.90;;;;;;5046980;28;20048;-77
2021/11/01 03:08:05;;;;;;;16.80;2.97;;;9.90;99.90;;;;;;5084092;28;20048;-75
2021/11/01 03:10:33;;;;;;;17.35;3.00;;;9.90;99.90;;;;;;5108334;28;20653;-77
2021/11/01 03:13:02;;;;;;;12.50;4.35;;;9.90;99.90;;;;;;5075645;28;20044;-76
2021/11/01 03:15:30;;;;;;;13.02;3.75;;;9.90;99.90;;;;;;5085751;28;20059;-75
2021/11/01 03:18:02;;;;;;;10.90;3.20;;;9.80;99.90;;;;;;5071155;28;20052;-78
2021/11/01 03:20:35;;;;;;;14.50;3.78;;;9.90;99.90;;;;;;5106929;28;20055;-80
2021/11/01 03:23:13;;;;;;;12.07;3.05;;;9.80;99.90;;;;;;5108211;28;20054;-77
2021/11/01 03:25:48;;;;;;;16.92;3.15;;;9.80;99.90;;;;;;5088449;28;20054;-77
2021/11/01 03:28:20;;;;;;;12.98;3.50;;;9.80;99.90;;;;;;5087740;28;20060;-77
2021/11/01 03:30:49;;;;;;;13.88;3.70;;;9.80;99.90;;;;;;5106267;28;20063;-79
2021/11/01 03:33:18;;;;;;;15.90;2.90;;;9.80;99.90;;;;;;5105309;28;20047;-78
2021/11/01 03:35:47;;;;;;;15.35;3.10;;;9.80;99.90;;;;;;5067989;28;20049;-78
2021/11/01 03:38:16;;;;;;;7.72;1.88;;;9.80;99.90;;;;;;5085395;28;20070;-77
2021/11/01 03:40:47;;;;;;;17.95;3.03;;;9.80;99.90;;;;;;5087573;28;20062;-77
2021/11/01 03:43:29;;;;;;;14.80;2.25;;;9.80;99.90;;;;;;5106269;28;20039;-77
2021/11/01 03:45:59;;;;;;;8.02;2.35;;;9.80;99.90;;;;;;5086226;28;20060;-77
2021/11/01 03:48:30;;;;;;;19.25;3.20;;;9.70;99.90;;;;;;5089058;28;20493;-75
2021/11/01 03:51:02;;;;;;;9.68;2.97;;;9.70;99.90;;;;;;5058750;28;20594;-77
2021/11/01 03:53:31;;;;;;;18.60;2.95;;;9.70;99.90;;;;;;5069776;28;20044;-77
2021/11/01 03:55:59;;;;;;;7.40;2.30;;;9.70;99.90;;;;;;5074200;28;20050;-76
2021/11/01 03:58:28;;;;;;;13.73;3.10;;;9.70;99.90;;;;;;5085720;28;20051;-76
2021/11/01 04:00:56;;;;;;;33.72;4.07;;;9.80;99.90;;;;;;5069244;28;20067;-76
2021/11/01 04:03:26;;;;;;;9.75;2.45;;;9.70;99.90;;;;;;5069533;28;20059;-75
2021/11/01 04:06:03;;;;;;;8.95;2.70;;;9.70;99.90;;;;;;5086216;28;20036;-77
2021/11/01 04:08:33;;;;;;;9.18;4.20;;;9.70;99.90;;;;;;5086864;28;20067;-76
2021/11/01 04:11:03;;;;;;;14.20;3.10;;;9.70;99.90;;;;;;5083228;28;20628;-76
2021/11/01 04:13:34;;;;;;;10.57;2.78;;;9.70;99.90;;;;;;5076467;28;20047;-77
2021/11/01 04:16:10;;;;;;;14.65;2.70;;;9.70;99.90;;;;;;5102563;28;20398;-76
2021/11/01 04:18:57;;;;;;;5.32;2.50;;;9.80;99.90;;;;;;5083609;28;20056;-75
2021/11/01 04:21:25;;;;;;;15.93;2.53;;;9.80;99.90;;;;;;5064167;28;20390;-77
2021/11/01 04:23:58;;;;;;;14.35;3.97;;;9.80;99.90;;;;;;5086331;28;20052;-78
2021/11/01 04:26:27;;;;;;;10.82;2.65;;;9.80;99.90;;;;;;5106130;28;20047;-79
2021/11/01 04:28:55;;;;;;;12.68;3.35;;;9.80;99.90;;;;;;5092314;28;20053;-78
2021/11/01 04:31:31;;;;;;;14.52;2.50;;;9.80;99.90;;;;;;5103916;28;20033;-79
2021/11/01 04:34:08;;;;;;;11.77;2.10;;;9.90;99.90;;;;;;5069705;28;20056;-77
2021/11/01 04:36:36;;;;;;;12.25;4.53;;;9.90;99.90;;;;;;5104467;28;20048;-79
2021/11/01 04:39:11;;;;;;;11.80;2.92;;;9.90;99.90;;;;;;5086170;28;20059;-77
2021/11/01 04:53:08;;;;;;;18.25;3.35;;;10.00;99.90;;;;;;5032933;28;20057;-78
2021/11/01 04:55:43;;;;;;;2.63;1.48;;;10.00;99.90;;;;;;5060986;28;20052;-76
2021/11/01 04:59:06;;;;;;;17.40;3.65;;;10.10;99.90;;;;;;4999201;28;20057;-75
2021/11/01 05:01:53;;;;;;;17.77;4.88;;;10.00;99.90;;;;;;4955239;28;20054;-79
2021/11/01 05:04:25;;;;;;;11.77;3.63;;;10.10;99.90;;;;;;5010032;28;20054;-79
2021/11/01 05:07:09;;;;;;;7.15;2.15;;;10.20;99.90;;;;;;5016760;28;20056;-79
2021/11/01 05:09:45;;;;;;;13.90;2.38;;;10.20;99.90;;;;;;4677033;28;10000404;-79
2021/11/01 05:22:34;;;;;;;10.20;3.42;;;10.20;99.90;;;;;;5026537;28;20053;-78
2021/11/01 05:25:06;;;;;;;12.45;4.38;;;10.20;99.90;;;;;;5027251;28;20052;-78
2021/11/01 05:27:44;;;;;;;9.48;3.47;;;10.20;99.90;;;;;;5007145;28;20060;-76
2021/11/01 05:30:21;;;;;;;9.77;2.25;;;10.20;99.90;;;;;;5006500;28;20065;-78
2021/11/01 05:32:56;;;;;;;13.35;2.50;;;10.20;99.90;;;;;;4992347;28;20058;-76
2021/11/01 05:35:25;;;;;;;11.57;3.33;;;10.20;99.90;;;;;;5036703;28;20064;-79
2021/11/01 05:37:55;;;;;;;10.85;2.50;;;10.20;99.90;;;;;;5109932;28;20044;-80
2021/11/01 05:40:23;;;;;;;15.27;4.18;;;10.20;99.90;;;;;;5110013;28;20054;-78
2021/11/01 05:42:51;;;;;;;23.15;5.57;;;10.20;99.90;;;;;;5107697;28;20050;-78
2021/11/01 05:45:21;;;;;;;13.20;4.30;;;10.20;99.90;;;;;;5093559;28;20056;-77
2021/11/01 05:47:56;;;;;;;8.45;2.13;;;10.20;99.90;;;;;;5102763;28;20036;-78
2021/11/01 05:50:27;;;;;;;9.88;4.18;;;10.20;99.90;;;;;;5099948;28;20052;-75
2021/11/01 05:52:58;;;;;;;10.90;2.65;;;10.20;99.90;;;;;;5087436;28;20052;-80
2021/11/01 05:58:35;;;;;;;13.95;5.30;;;10.20;99.90;;;;;;5085820;28;20122;-76
2021/11/01 06:02:04;;;;;;;22.38;5.03;;;10.20;99.90;;;;;;5103729;28;20090;-78
2021/11/01 06:07:00;;;;;;;18.33;3.20;;;10.10;99.90;;;;;;5105215;28;20044;-75
2021/11/01 06:14:56;;;;;;;14.63;3.28;;;10.10;99.90;;;;;;5104749;28;20054;-74
2021/11/01 06:17:26;;;;;;;12.07;3.10;;;10.10;99.90;;;;;;5102444;28;20050;-76
2021/11/01 06:19:55;;;;;;;8.07;4.70;;;10.10;99.90;;;;;;5063151;28;20060;-75
2021/11/01 06:22:25;;;;;;;15.88;3.25;;;10.10;99.90;;;;;;5100206;28;20040;-78
2021/11/01 06:24:57;;;;;;;16.02;4.50;;;10.00;99.90;;;;;;5104113;28;20062;-78
2021/11/01 06:27:26;;;;;;;14.02;3.22;;;10.00;99.90;;;;;;5075972;28;20044;-77
2021/11/01 06:43:55;;;;;;;14.10;4.22;;;9.80;99.90;;;;;;5075401;28;20045;-77
2021/11/01 06:54:53;;;;;;;8.20;3.47;;;9.70;99.90;;;;;;5104800;28;20050;-77
2021/11/01 06:57:39;;;;;;;15.57;2.90;;;9.70;99.90;;;;;;5104822;28;20039;-77
2021/11/01 07:19:32;;;;;;;14.50;3.47;;;9.60;99.90;;;;;;5103029;28;20067;-75
2021/11/01 08:40:29;;;;;;;13.20;4.47;;;10.30;99.90;;;;;;5082711;28;20040;-79
2021/11/01 08:43:12;;;;;;;10.70;2.92;;;10.40;99.90;;;;;;5076402;28;20078;-80
2021/11/01 08:46:32;;;;;;;12.85;3.35;;;10.40;99.90;;;;;;5079233;28;20048;-81
2021/11/01 09:07:52;;;;;;;17.00;4.35;;;10.70;99.90;;;;;;5061656;28;20051;-79
2021/11/01 09:24:14;;;;;;;16.50;2.88;;;10.90;99.90;;;;;;5102111;28;20056;-82
2021/11/01 09:26:44;;;;;;;9.55;2.70;;;11.00;99.90;;;;;;5076726;28;20048;-81
2021/11/01 09:37:53;;;;;;;14.75;3.63;;;11.10;99.90;;;;;;5055616;28;20044;-80
2021/11/01 09:43:07;;;;;;;14.75;2.58;;;11.10;99.90;;;;;;5100419;28;20050;-83
2021/11/01 09:45:36;;;;;;;15.77;4.13;;;11.20;99.90;;;;;;5088666;28;20070;-80
2021/11/01 09:48:08;;;;;;;14.43;3.03;;;11.20;99.90;;;;;;5086773;28;20032;-84
2021/11/01 09:51:04;;;;;;;;;;;;;;;;;;;;;
2021/11/01 09:54:07;;;;;;;25.80;2.67;;;11.30;99.90;;;;;;5105801;28;20048;-85
2021/11/01 09:56:45;;;;;;;13.10;2.67;;;11.40;99.90;;;;;;5068243;28;20114;-83
2021/11/01 09:59:22;;;;;;;16.80;3.10;;;11.50;99.90;;;;;;5098031;28;20056;-86
2021/11/01 10:02:03;;;;;;;9.20;2.83;;;11.60;99.90;;;;;;5083048;28;20059;-83
2021/11/01 10:04:34;;;;;;;29.50;4.82;;;11.60;99.90;;;;;;5064679;28;20049;-83
2021/11/01 10:07:30;;;;;;;17.38;4.68;;;11.60;99.90;;;;;;5082604;28;20054;-85
2021/11/01 10:10:11;;;;;;;16.10;2.50;;;11.70;99.90;;;;;;5066612;28;20510;-81
2021/11/01 10:12:44;;;;;;;5.40;2.08;;;11.70;99.90;;;;;;5082743;28;20040;-80
2021/11/01 10:18:18;;;;;;;17.00;4.82;;;11.80;99.90;;;;;;5083815;28;20051;-87
2021/11/01 10:20:52;;;;;;;17.08;2.78;;;11.70;99.90;;;;;;5096505;28;20073;-84
2021/11/01 10:23:38;;;;;;;;;;;;;;;;;;;;;
2021/11/01 10:26:29;;;;;;;18.52;4.30;;;12.00;99.90;;;;;;5101648;28;20048;-85
2021/11/01 10:29:13;;;;;;;11.80;4.78;;;12.00;99.90;;;;;;5099762;28;20036;-84
2021/11/01 10:31:50;;;;;;;14.88;2.47;;;12.10;99.90;;;;;;5104541;28;20044;-85
2021/11/01 10:34:27;;;;;;;13.52;2.22;;;12.20;99.90;;;;;;5064868;28;20048;-84
2021/11/01 10:37:02;;;;;;;5.32;2.05;;;12.20;99.90;;;;;;5084078;28;20044;-82
2021/11/01 10:39:41;;;;;;;8.55;2.00;;;11.60;99.90;;;;;;5084109;28;20040;-84
2021/11/01 10:42:22;;;;;;;14.55;2.70;;;12.60;99.90;;;;;;5074426;28;20048;-81
2021/11/01 11:12:51;;;;;;;13.88;4.00;;;12.70;99.90;;;;;;5082700;28;20043;-84
2021/11/01 11:15:29;;;;;;;17.77;4.85;;;11.60;99.90;;;;;;5089899;28;20044;-85
2021/11/01 11:32:27;;;;;;;11.45;3.25;;;13.00;99.90;;;;;;5038654;28;20061;-84
2021/11/01 11:49:23;;;;;;;8.38;2.88;;;13.40;99.90;;;;;;5086209;28;20055;-82
2021/11/01 11:52:10;;;;;;;5.85;1.60;;;13.50;99.90;;;;;;5076367;28;20552;-82
2021/11/01 11:54:44;;;;;;;9.02;2.00;;;13.50;99.90;;;;;;5059526;28;20521;-82
2021/11/01 11:57:29;;;;;;;9.43;1.93;;;13.60;99.90;;;;;;5101416;28;20054;-84
2021/11/01 12:00:00;;;;;;;15.50;2.45;;;13.70;99.90;;;;;;5085690;28;20074;-79
2021/11/01 12:02:40;;;;;;;7.38;1.77;;;13.80;99.90;;;;;;5103193;28;20043;-83
2021/11/01 12:05:38;;;;;;;10.73;2.53;;;13.80;99.90;;;;;;5097694;28;20055;-85
2021/11/01 12:19:18;;;;;;;14.85;2.80;;;14.10;99.50;;;;;;5087558;28;20052;-81
2021/11/01 12:21:50;;;;;;;7.07;2.08;;;14.10;99.40;;;;;;5104793;28;20570;-85
2021/11/01 12:24:26;;;;;;;7.32;1.73;;;14.10;99.70;;;;;;5068168;28;20048;-80
2021/11/01 12:27:09;;;;;;;8.85;1.70;;;14.10;99.90;;;;;;5066497;28;20052;-83
2021/11/01 12:29:51;;;;;;;6.53;1.98;;;14.20;99.40;;;;;;5100371;28;20066;-81
2021/11/01 12:32:27;;;;;;;16.08;1.98;;;14.10;99.90;;;;;;5103159;28;20062;-83
2021/11/01 12:35:02;;;;;;;20.60;3.92;;;14.30;99.40;;;;;;5080617;28;20044;-82
2021/11/01 12:37:55;;;;;;;8.50;1.70;;;14.20;99.00;;;;;;5079930;28;20055;-83
2021/11/01 12:40:51;;;;;;;6.70;1.70;;;14.20;99.00;;;;;;5093630;28;20050;-84
2021/11/01 12:47:07;;;;;;;11.00;1.80;;;13.80;98.70;;;;;;5083343;28;20055;-82
2021/11/01 12:58:57;;;;;;;12.20;2.75;;;13.50;98.10;;;;;;5065653;28;20285;-87
2021/11/01 13:01:29;;;;;;;15.35;3.70;;;13.40;98.40;;;;;;5069659;28;20048;-84
2021/11/01 13:04:20;;;;;;;11.52;2.20;;;13.50;98.50;;;;;;5086889;28;20059;-83
2021/11/01 13:07:03;;;;;;;8.15;1.90;;;13.50;98.70;;;;;;5096522;28;20049;-87
2021/11/01 13:09:44;;;;;;;11.52;2.17;;;13.50;98.70;;;;;;5067453;28;20056;-84
2021/11/01 13:14:56;;;;;;;7.50;1.70;;;13.70;97.90;;;;;;5096099;28;20049;-81
2021/11/01 13:20:23;;;;;;;7.53;1.52;;;13.80;96.90;;;;;;5077355;28;20049;-83
2021/11/01 13:22:57;;;;;;;7.57;1.60;;;13.90;97.10;;;;;;5085703;28;20044;-80
2021/11/01 13:28:45;;;;;;;10.77;2.28;;;14.10;97.30;;;;;;5073995;28;20037;-82
2021/11/01 13:37:24;;;;;;;5.65;1.70;;;14.40;97.30;;;;;;5067171;28;20056;-82
2021/11/01 13:40:14;;;;;;;6.53;2.80;;;14.50;97.10;;;;;;5103265;28;20044;-84
2021/11/01 13:42:57;;;;;;;5.30;1.38;;;14.60;96.60;;;;;;5088874;28;20070;-83
2021/11/01 13:45:54;;;;;;;6.80;1.75;;;14.70;96.80;;;;;;5106781;28;20054;-88
2021/11/01 13:48:32;;;;;;;6.05;1.83;;;14.30;97.20;;;;;;5087494;28;20048;-82
2021/11/01 13:51:09;;;;;;;;;;;14.50;99.90;;;;;;5082731;28;20440;-82
2021/11/01 13:53:59;;;;;;;12.38;2.35;;;12.70;99.90;;;;;;5102324;28;19924;-81
2021/11/01 13:56:57;;;;;;;5.72;1.70;;;13.50;99.90;;;;;;5089811;28;20036;-83
2021/11/01 13:59:51;;;;;;;9.52;2.00;;;13.10;99.90;;;;;;5087043;28;20048;-85
2021/11/01 14:02:58;;;;;;;5.30;1.77;;;12.90;99.90;;;;;;5107002;28;20028;-84
2021/11/01 14:11:29;;;;;;;14.88;2.88;;;14.00;99.90;;;;;;5068051;28;20048;-83
2021/11/01 14:28:19;;;;;;;8.70;2.53;;;12.60;99.90;;;;;;5087076;28;20045;-85
2021/11/01 14:55:14;;;;;;;6.25;1.77;;;12.60;99.90;;;;;;5107734;28;20044;-87
2021/11/01 15:09:30;;;;;;;11.07;3.42;;;13.50;99.90;;;;;;5081373;28;20462;-83
2021/11/01 15:14:48;;;;;;;15.38;2.92;;;14.90;99.90;;;;;;5103706;28;20049;-83
2021/11/01 15:43:07;;;;;;;6.72;1.35;;;13.10;99.90;;;;;;5086520;28;20055;-80
2021/11/01 16:20:10;;;;;;;3.85;1.52;;;11.90;99.90;;;;;;5099224;28;20056;-79
2021/11/01 16:22:41;;;;;;;4.68;1.73;;;11.80;99.90;;;;;;5099235;28;20067;-81
2021/11/01 16:25:38;;;;;;;6.43;1.52;;;11.80;99.90;;;;;;5083620;28;20044;-84
2021/11/01 16:28:14;;;;;;;5.05;1.45;;;11.80;99.90;;;;;;5095225;28;20044;-85
2021/11/01 16:30:51;;;;;;;2.08;1.83;;;11.60;99.90;;;;;;5099712;28;20049;-82
2021/11/01 16:33:49;;;;;;;3.92;1.55;;;11.60;99.90;;;;;;5068540;28;20044;-86
2021/11/01 16:36:41;;;;;;;6.05;2.15;;;11.50;99.90;;;;;;5083333;28;20040;-80
2021/11/01 16:39:42;;;;;;;6.28;2.42;;;11.40;99.90;;;;;;5096209;28;20044;-85
2021/11/01 16:42:12;;;;;;;4.78;2.83;;;11.30;99.90;;;;;;5067207;28;20363;-79
2021/11/01 16:44:43;;;;;;;6.13;1.80;;;11.30;99.90;;;;;;5076671;28;20052;-79
2021/11/01 16:47:17;;;;;;;5.97;1.48;;;11.20;99.90;;;;;;5086606;28;20044;-86
2021/11/01 16:49:49;;;;;;;3.80;1.30;;;11.10;99.90;;;;;;5085397;28;20165;-84
2021/11/01 16:52:18;;;;;;;;;;;11.10;99.90;;;;;;5091355;28;20043;-83
2021/11/01 16:54:58;;;;;;;4.75;2.60;;;11.00;99.90;;;;;;5069243;28;19931;-82
2021/11/01 16:58:03;;;;;;;6.47;1.80;;;10.90;99.90;;;;;;5061400;28;20040;-80
2021/11/01 17:00:54;;;;;;;7.43;1.95;;;10.80;99.90;;;;;;5074058;28;20083;-87
2021/11/01 17:04:13;;;;;;;4.95;2.47;;;10.70;99.90;;;;;;5066339;28;20044;-83
2021/11/01 17:07:09;;;;;;;10.10;2.88;;;11.50;99.90;;;;;;5077652;28;20053;-82
2021/11/01 17:27:04;;;;;;;8.30;4.07;;;9.90;99.90;;;;;;4747182;28;9999947;-78
2021/11/01 18:51:39;;;;;;;7.40;2.75;;;8.80;99.90;;;;;;5053473;28;20055;-92
2021/11/01 18:54:19;;;;;;;6.47;3.28;;;8.70;99.90;;;;;;5080877;28;20509;-89
2021/11/01 18:56:55;;;;;;;8.70;3.03;;;8.70;99.90;;;;;;5102391;28;20086;-92
2021/11/01 18:59:25;;;;;;;11.77;2.95;;;8.60;99.90;;;;;;5087484;28;20040;-89
2021/11/01 19:02:25;;;;;;;7.28;2.70;;;8.60;99.90;;;;;;5071834;28;20051;-88
2021/11/01 19:08:13;;;;;;;8.27;2.70;;;8.50;99.90;;;;;;5100114;28;20052;-91
2021/11/01 20:05:51;;;;;;;11.68;3.42;;;8.00;99.90;;;;;;5118111;28;20266;-91
2021/11/01 20:08:53;;;;;;;6.25;3.25;;;8.00;99.90;;;;;;5101452;28;20054;-91
2021/11/01 20:11:37;;;;;;;7.90;3.13;;;8.00;99.90;;;;;;5121997;28;20048;-87
2021/11/01 21:27:31;;;;;;;6.05;2.75;;;7.60;99.90;;;;;;5084624;28;20048;-89
2021/11/01 21:30:08;;;;;;;8.95;3.80;;;7.60;99.90;;;;;;5052998;28;20044;-91
2021/11/01 21:32:53;;;;;;;4.50;2.67;;;7.60;99.90;;;;;;5050203;28;20056;-90
2021/11/01 21:35:30;;;;;;;9.98;3.78;;;7.50;99.90;;;;;;5058809;28;20054;-93
2021/11/01 21:38:07;;;;;;;9.88;3.97;;;7.50;99.90;;;;;;5084913;28;20054;-91
2021/11/01 21:40:53;;;;;;;8.00;2.75;;;7.50;99.90;;;;;;5074206;28;20052;-89
2021/11/01 21:43:48;;;;;;;6.10;3.28;;;7.50;99.90;;;;;;5087448;28;20059;-91
2021/11/01 21:46:31;;;;;;;10.88;3.42;;;7.40;99.90;;;;;;5076876;28;20044;-90
2021/11/01 21:49:17;;;;;;;5.50;3.10;;;7.40;99.90;;;;;;5090310;28;20056;-93
2021/11/01 21:51:47;;;;;;;3.80;2.17;;;7.50;99.90;;;;;;5065417;28;20495;-91
2021/11/01 21:56:55;;;;;;;6.05;2.85;;;7.40;99.90;;;;;;5070252;28;20056;-92
2021/11/01 22:17:34;;;;;;;6.03;2.63;;;7.50;99.90;;;;;;5104122;28;20046;-91
2021/11/01 22:20:16;;;;;;;8.82;2.88;;;7.50;99.90;;;;;;5093702;28;20047;-89
2021/11/01 22:25:31;;;;;;;6.57;2.97;;;7.50;99.90;;;;;;5095322;28;20059;-90
2021/11/01 22:42:45;;;;;;;9.55;3.75;;;7.40;99.90;;;;;;5108033;28;20048;-89
2021/11/01 22:45:42;;;;;;;13.98;4.05;;;7.40;99.90;;;;;;5091382;28;20049;-90
2021/11/01 22:56:49;;;;;;;8.45;3.35;;;7.20;99.90;;;;;;5119372;28;20032;-90
2021/11/01 22:59:18;;;;;;;8.75;2.80;;;7.40;99.90;;;;;;5086908;28;20051;-89
2021/11/01 23:01:49;;;;;;;11.48;4.70;;;7.40;99.90;;;;;;5102473;28;20048;-88
2021/11/01 23:34:41;;;;;;;9.02;3.78;;;7.30;99.90;;;;;;5043019;28;20056;-82
2021/11/01 23:40:34;;;;;;;17.80;5.65;;;6.40;99.90;;;;;;5041026;28;20033;-78
2021/11/01 23:43:06;;;;;;;7.82;3.33;;;7.30;99.90;;;;;;5023993;28;20060;-84
2021/11/01 23:45:41;;;;;;;9.00;3.65;;;7.30;99.90;;;;;;5062574;28;20518;-87
2021/11/01 23:48:19;;;;;;;5.65;3.15;;;7.30;99.90;;;;;;5053255;28;20052;-84
2021/11/01 23:51:35;;;;;;;9.50;4.38;;;5.80;99.90;;;;;;5051476;28;20053;-85
2021/11/01 23:54:55;;;;;;;9.20;3.78;;;8.20;99.90;;;;;;5063130;28;20048;-84
2021/11/01 23:57:26;;;;;;;9.10;3.05;;;7.30;99.90;;;;;;5066814;28;20041;-80
